Time;durP1;ratioP1;P1;durP2;ratioP2;P2;SDS_P1;SDS_P2;PMS_P1;PMS_P2;Temp;Humidity;BMP_temperature;BMP_pressure;BME280_temperature;BME280_humidity;BME280_pressure;Samples;Min_cycle;Max_cycle;Signal;HPM_P1;HPM_P2
2022/10/16 00:00:34;;;;;;;2.70;2.50;;;;;;;8.13;72.24;94069.22;5059115;28;20082;-35
2022/10/16 00:03:00;;;;;;;0.85;0.85;;;;;;;8.24;71.79;94066.34;5064308;28;20033;-35
2022/10/16 00:05:25;;;;;;;1.90;1.45;;;;;;;8.24;71.51;94051.84;5069432;28;20025;-35
2022/10/16 00:07:51;;;;;;;2.97;1.42;;;;;;;8.40;70.94;94057.16;5060723;28;20044;-35
2022/10/16 00:10:16;;;;;;;2.90;2.50;;;;;;;8.34;71.14;94064.00;5066074;28;20029;-35
2022/10/16 00:12:41;;;;;;;1.48;1.38;;;;;;;8.15;71.47;94069.47;5066590;28;20029;-35
2022/10/16 00:15:07;;;;;;;2.05;1.30;;;;;;;8.02;71.77;94065.84;5062988;28;20017;-35
2022/10/16 00:17:33;;;;;;;1.13;1.13;;;;;;;7.72;72.64;94034.94;5065479;28;20039;-36
2022/10/16 00:19:58;;;;;;;1.48;1.38;;;;;;;7.99;72.05;94066.91;5061121;28;20020;-35
2022/10/16 00:22:24;;;;;;;1.02;0.98;;;;;;;8.21;70.99;94072.13;5058782;28;20017;-35
2022/10/16 00:24:49;;;;;;;2.03;1.92;;;;;;;8.10;70.93;94086.75;5060912;28;20031;-35
2022/10/16 00:27:15;;;;;;;0.85;0.80;;;;;;;7.72;72.51;94087.16;5063795;28;20540;-35
2022/10/16 00:29:40;;;;;;;2.13;1.50;;;;;;;7.61;72.73;94088.78;5065310;28;20052;-36
2022/10/16 00:32:06;;;;;;;3.15;2.55;;;;;;;7.69;72.40;94088.94;5069001;28;20028;-36
2022/10/16 00:34:31;;;;;;;1.08;1.08;;;;;;;7.78;71.95;94088.59;5065566;28;20036;-36
2022/10/16 00:36:57;;;;;;;2.40;0.93;;;;;;;7.82;71.73;94083.56;5059927;28;20037;-35
2022/10/16 00:39:23;;;;;;;2.42;1.83;;;;;;;7.81;71.25;94084.09;5060009;28;20543;-36
2022/10/16 00:41:49;;;;;;;0.30;0.30;;;;;;;7.70;71.71;94087.69;5069815;28;20028;-35
2022/10/16 00:44:47;;;;;;;0.30;0.30;;;;;;;7.63;71.74;94086.25;5065940;28;20609;-35
2022/10/16 00:47:20;;;;;;;0.40;0.40;;;;;;;7.26;72.66;94077.09;5064013;28;20074;-35
2022/10/16 00:49:47;;;;;;;1.70;1.60;;;;;;;7.03;73.75;94079.28;5066736;28;20481;-35
2022/10/16 00:52:13;;;;;;;0.60;0.60;;;;;;;6.84;74.01;94079.16;5069818;28;20028;-36
2022/10/16 00:54:38;;;;;;;0.45;0.45;;;;;;;6.92;73.68;94090.34;5045079;28;20035;-36
2022/10/16 00:57:05;;;;;;;0.85;0.85;;;;;;;6.92;72.58;94070.38;5065689;28;20025;-35
2022/10/16 00:59:35;;;;;;;2.35;2.15;;;;;;;7.05;72.30;94098.72;5063015;28;20032;-35
2022/10/16 01:02:02;;;;;;;0.47;0.47;;;;;;;6.79;73.02;94104.66;5063026;28;20028;-36
2022/10/16 01:04:32;;;;;;;1.08;1.08;;;;;;;6.66;73.19;94093.50;5064259;28;20105;-36
2022/10/16 01:07:03;;;;;;;0.85;0.80;;;;;;;6.81;72.92;94095.91;5045324;28;20453;-36
2022/10/16 01:09:31;;;;;;;0.30;0.30;;;;;;;6.94;72.47;94092.56;5047842;28;20428;-35
2022/10/16 01:12:00;;;;;;;0.97;0.83;;;;;;;6.82;71.77;94095.38;5063569;28;20032;-35
2022/10/16 01:14:43;;;;;;;0.93;0.93;;;;;;;6.82;71.30;94102.88;5063557;28;20039;-35
2022/10/16 01:17:14;;;;;;;0.95;0.90;;;;;;;6.49;71.34;94103.81;5062450;28;20104;-35
2022/10/16 01:20:17;;;;;;;0.85;0.85;;;;;;;6.58;71.90;94103.50;5048012;28;20029;-35
2022/10/16 01:23:06;;;;;;;1.42;1.33;;;;;;;6.27;73.07;94098.44;5067643;28;20056;-35
2022/10/16 01:25:34;;;;;;;3.42;1.67;;;;;;;6.51;73.17;94100.56;5048734;28;20036;-35
2022/10/16 01:28:01;;;;;;;1.50;1.40;;;;;;;6.61;72.62;94090.75;5070367;28;20051;-35
2022/10/16 01:30:30;;;;;;;1.95;1.85;;;;;;;6.36;72.66;94098.13;5051815;28;20438;-35
2022/10/16 01:33:19;;;;;;;7.10;1.50;;;;;;;6.16;73.39;94092.22;5071676;28;20028;-35
2022/10/16 01:35:48;;;;;;;1.75;1.65;;;;;;;6.30;72.42;94104.91;5071242;28;20040;-36
2022/10/16 01:38:39;;;;;;;;;;;;;;;6.21;72.28;94105.94;5071618;28;20066;-35
2022/10/16 01:41:13;;;;;;;0.80;0.80;;;;;;;6.01;73.14;94106.25;5066595;28;19923;-35
2022/10/16 01:44:00;;;;;;;0.60;0.60;;;;;;;6.02;72.96;94102.28;5052155;28;20025;-35
2022/10/16 01:46:26;;;;;;;0.65;0.65;;;;;;;6.07;72.51;94102.22;5071771;28;20031;-35
2022/10/16 01:48:52;;;;;;;0.20;0.20;;;;;;;6.11;72.42;94107.44;5062779;28;20037;-35
2022/10/16 01:51:19;;;;;;;0.60;0.60;;;;;;;6.08;72.24;94106.47;5069472;28;20056;-35
2022/10/16 01:53:49;;;;;;;1.67;1.55;;;;;;;5.97;72.63;94109.25;5054932;28;20029;-35
2022/10/16 01:56:16;;;;;;;0.65;0.65;;;;;;;6.01;72.01;94108.97;5050297;28;20035;-35
2022/10/16 01:59:04;;;;;;;0.38;0.38;;;;;;;6.08;71.58;94114.72;5050467;28;20024;-35
2022/10/16 02:01:31;;;;;;;0.90;0.90;;;;;;;6.07;71.18;94110.47;5070435;28;20037;-35
2022/10/16 02:04:00;;;;;;;0.30;0.30;;;;;;;5.93;71.38;94118.97;5067434;28;20024;-35
2022/10/16 02:06:26;;;;;;;0.68;0.68;;;;;;;5.83;71.24;94117.72;5051035;28;20041;-35
2022/10/16 02:08:51;;;;;;;1.13;1.05;;;;;;;5.91;71.03;94110.53;5071889;28;20063;-35
2022/10/16 02:11:17;;;;;;;1.30;1.20;;;;;;;5.85;70.85;94123.47;5066238;28;20036;-36
2022/10/16 02:13:48;;;;;;;1.48;1.30;;;;;;;5.87;70.96;94129.19;5072648;28;20485;-35
2022/10/16 02:16:14;;;;;;;1.45;1.02;;;;;;;5.69;71.18;94126.97;5049109;28;20098;-36
2022/10/16 02:18:41;;;;;;;0.95;0.90;;;;;;;5.71;70.99;94130.72;5065987;28;20485;-35
2022/10/16 02:21:18;;;;;;;0.47;0.47;;;;;;;5.85;70.28;94131.69;5052680;28;20107;-35
2022/10/16 02:24:01;;;;;;;0.68;0.68;;;;;;;5.85;69.71;94124.22;5065627;28;20029;-35
2022/10/16 02:26:41;;;;;;;0.47;0.47;;;;;;;5.58;70.15;94124.25;5049505;28;20025;-36
2022/10/16 02:29:12;;;;;;;1.25;1.25;;;;;;;5.48;69.92;94131.97;5072726;28;20458;-35
2022/10/16 02:31:41;;;;;;;0.40;0.40;;;;;;;5.47;69.94;94133.22;5051595;28;20032;-35
2022/10/16 02:34:07;;;;;;;;;;;;;;;5.57;70.00;94133.69;5068910;28;20086;-35
2022/10/16 02:36:32;;;;;;;0.60;0.60;;;;;;;5.50;69.63;94132.19;5054582;28;19912;-35
2022/10/16 02:39:00;;;;;;;0.40;0.40;;;;;;;5.51;69.94;94133.72;5049405;28;20703;-35
2022/10/16 02:41:26;;;;;;;0.47;0.47;;;;;;;5.52;69.47;94118.78;5048623;28;20103;-35
2022/10/16 02:43:51;;;;;;;0.60;0.60;;;;;;;5.32;70.13;94125.28;5060649;28;20108;-35
2022/10/16 02:46:17;;;;;;;1.17;1.15;;;;;;;5.10;70.21;94129.97;5064197;28;20086;-35
2022/10/16 02:48:43;;;;;;;1.25;1.15;;;;;;;5.14;70.39;94128.50;5045393;28;20081;-36
2022/10/16 02:51:08;;;;;;;0.30;0.30;;;;;;;5.06;70.49;94126.75;5071176;28;20475;-35
2022/10/16 02:53:33;;;;;;;0.28;0.28;;;;;;;4.93;71.02;94132.72;5067879;28;20039;-35
2022/10/16 02:55:59;;;;;;;0.80;0.75;;;;;;;5.03;70.64;94136.69;5068490;28;20519;-35
2022/10/16 02:58:24;;;;;;;0.68;0.68;;;;;;;5.12;70.11;94122.00;5070881;28;20024;-35
2022/10/16 03:00:50;;;;;;;1.55;1.45;;;;;;;4.78;69.94;94099.34;5069404;28;20024;-35
2022/10/16 03:03:15;;;;;;;1.17;1.17;;;;;;;4.86;70.59;94135.16;5069960;28;20032;-35
2022/10/16 03:05:45;;;;;;;0.65;0.65;;;;;;;4.79;71.08;94130.19;5068608;28;20100;-35
2022/10/16 03:08:11;;;;;;;0.30;0.30;;;;;;;4.54;71.10;94135.38;5065413;28;20780;-35
2022/10/16 03:10:36;;;;;;;0.75;0.75;;;;;;;4.65;70.42;94131.16;5065253;28;20025;-35
2022/10/16 03:13:02;;;;;;;1.10;1.10;;;;;;;4.83;70.17;94136.91;5064786;28;20027;-35
2022/10/16 03:15:28;;;;;;;0.73;0.73;;;;;;;4.68;70.42;94141.13;5064144;28;20029;-35
2022/10/16 03:17:54;;;;;;;0.75;0.57;;;;;;;4.83;70.14;94144.38;5069647;28;20047;-35
2022/10/16 03:20:19;;;;;;;1.42;1.38;;;;;;;4.69;69.25;94131.66;5064012;28;20485;-35
2022/10/16 03:22:45;;;;;;;0.50;0.50;;;;;;;4.60;69.23;94141.59;5063489;28;20100;-35
2022/10/16 03:25:10;;;;;;;2.00;1.90;;;;;;;4.52;70.35;94140.59;5071087;28;20039;-35
2022/10/16 03:27:36;;;;;;;1.67;1.42;;;;;;;4.53;68.90;94139.31;5071523;28;20553;-35
2022/10/16 03:30:02;;;;;;;2.35;2.25;;;;;;;4.55;69.28;94147.03;5061928;28;20585;-35
2022/10/16 03:32:28;;;;;;;1.00;1.00;;;;;;;4.49;69.43;94151.75;5062209;28;20029;-35
2022/10/16 03:34:54;;;;;;;0.75;0.75;;;;;;;4.38;70.18;94140.75;5064539;28;20021;-35
2022/10/16 03:37:20;;;;;;;1.05;1.05;;;;;;;4.46;69.85;94145.25;5066489;28;20408;-35
2022/10/16 03:39:45;;;;;;;0.73;0.73;;;;;;;4.40;69.39;94157.41;5070645;28;20028;-35
2022/10/16 03:42:11;;;;;;;2.50;2.08;;;;;;;4.20;69.79;94157.59;5066805;28;20059;-35
2022/10/16 03:44:36;;;;;;;2.05;1.88;;;;;;;4.11;70.34;94158.56;5067661;28;20625;-35
2022/10/16 03:47:01;;;;;;;1.58;1.48;;;;;;;3.97;70.16;94150.50;5062638;28;20412;-35
2022/10/16 03:49:27;;;;;;;3.60;3.30;;;;;;;4.18;70.30;94149.88;5066363;28;20481;-36
2022/10/16 03:51:52;;;;;;;0.77;0.77;;;;;;;4.16;70.46;94152.34;5058936;28;20056;-35
2022/10/16 03:54:18;;;;;;;0.40;0.40;;;;;;;4.11;70.88;94155.06;5061649;28;20029;-35
2022/10/16 03:56:43;;;;;;;1.08;1.00;;;;;;;4.15;70.68;94156.34;5062326;28;20040;-35
2022/10/16 03:59:09;;;;;;;1.48;1.38;;;;;;;4.33;70.44;94155.19;5056731;28;20029;-35
2022/10/16 04:01:34;;;;;;;0.50;0.50;;;;;;;4.37;70.08;94145.50;5064355;28;20028;-35
2022/10/16 04:04:00;;;;;;;1.52;1.45;;;;;;;4.52;70.90;94157.00;5058391;28;20444;-35
2022/10/16 04:06:25;;;;;;;2.15;2.03;;;;;;;4.31;71.42;94157.66;5065776;28;20039;-35
2022/10/16 04:08:51;;;;;;;0.88;0.88;;;;;;;4.24;72.46;94164.34;5064751;28;20021;-35
2022/10/16 04:11:16;;;;;;;7.18;2.92;;;;;;;4.22;73.69;94157.84;5068386;28;20115;-35
2022/10/16 04:13:42;;;;;;;2.78;2.58;;;;;;;4.35;72.92;94153.41;5062706;28;20039;-35
2022/10/16 04:16:07;;;;;;;1.25;1.25;;;;;;;4.39;73.18;94167.63;5058512;28;20024;-35
2022/10/16 04:18:33;;;;;;;2.28;2.08;;;;;;;4.39;73.68;94162.16;5068744;28;20462;-35
2022/10/16 04:21:03;;;;;;;1.10;1.08;;;;;;;4.26;73.94;94150.16;5065123;28;20505;-35
2022/10/16 04:23:29;;;;;;;0.93;0.93;;;;;;;4.32;74.79;94151.69;5068710;28;20095;-35
2022/10/16 04:25:55;;;;;;;2.92;2.72;;;;;;;4.42;73.54;94152.97;5066971;28;20503;-35
2022/10/16 04:28:20;;;;;;;2.55;2.35;;;;;;;4.47;72.44;94156.94;5062590;28;20032;-35
2022/10/16 04:30:46;;;;;;;1.60;1.55;;;;;;;4.44;71.89;94160.69;5068939;28;20039;-35
2022/10/16 04:33:12;;;;;;;1.05;1.05;;;;;;;4.22;72.02;94160.59;5063453;28;20044;-36
2022/10/16 04:35:38;;;;;;;2.70;2.50;;;;;;;4.18;71.97;94168.28;5064182;28;20028;-35
2022/10/16 04:38:03;;;;;;;1.92;1.83;;;;;;;3.99;71.53;94158.97;5065571;28;20103;-35
2022/10/16 04:40:32;;;;;;;1.00;1.00;;;;;;;3.72;71.81;94157.59;5066810;28;20024;-34
2022/10/16 04:42:58;;;;;;;0.90;0.90;;;;;;;3.77;71.55;94174.00;5068660;28;20024;-34
2022/10/16 04:45:23;;;;;;;0.30;0.30;;;;;;;3.69;71.53;94174.94;5065867;28;20166;-34
2022/10/16 04:47:49;;;;;;;0.65;0.65;;;;;;;3.91;70.44;94186.00;5067322;28;20024;-34
2022/10/16 04:50:14;;;;;;;1.15;0.93;;;;;;;3.80;70.60;94186.69;5068192;28;20072;-35
2022/10/16 04:52:40;;;;;;;1.15;1.15;;;;;;;3.56;71.60;94189.00;5067634;28;20033;-34
2022/10/16 04:55:06;;;;;;;0.47;0.47;;;;;;;3.68;71.46;94192.56;5063485;28;20040;-34
2022/10/16 04:57:33;;;;;;;3.63;2.90;;;;;;;3.84;71.26;94184.47;5068653;28;20657;-34
2022/10/16 04:59:58;;;;;;;0.95;0.95;;;;;;;3.75;71.41;94194.84;5065262;28;20039;-34
2022/10/16 05:02:24;;;;;;;0.55;0.55;;;;;;;3.70;71.71;94195.56;5062110;28;20017;-35
2022/10/16 05:04:50;;;;;;;3.15;1.42;;;;;;;3.60;71.60;94181.34;5068087;28;20553;-34
2022/10/16 05:07:16;;;;;;;0.65;0.65;;;;;;;3.77;71.64;94192.38;5048563;28;20028;-35
2022/10/16 05:09:41;;;;;;;0.82;0.82;;;;;;;3.78;71.87;94194.63;5059632;28;20090;-35
2022/10/16 05:12:07;;;;;;;2.50;1.52;;;;;;;3.69;71.99;94199.50;5063149;28;20044;-35
2022/10/16 05:14:32;;;;;;;1.60;1.52;;;;;;;3.70;72.25;94199.03;5064339;28;20590;-36
2022/10/16 05:17:00;;;;;;;0.63;0.63;;;;;;;3.72;72.23;94195.81;5057338;28;20028;-35
2022/10/16 05:19:25;;;;;;;2.10;2.00;;;;;;;3.58;73.35;94208.38;5067194;28;20029;-35
2022/10/16 05:21:50;;;;;;;5.55;5.05;;;;;;;3.70;74.35;94209.22;5064607;28;20394;-35
2022/10/16 05:24:16;;;;;;;3.53;3.28;;;;;;;3.93;72.72;94210.84;5067716;28;20032;-35
2022/10/16 05:26:42;;;;;;;1.95;1.92;;;;;;;4.09;73.04;94207.50;5066521;28;20130;-35
2022/10/16 05:29:07;;;;;;;3.50;3.30;;;;;;;4.03;73.23;94212.16;5066378;28;20020;-35
2022/10/16 05:31:33;;;;;;;4.25;4.05;;;;;;;3.85;74.14;94204.34;5067482;28;20485;-35
2022/10/16 05:33:59;;;;;;;2.38;2.28;;;;;;;3.99;73.75;94213.59;5064725;28;20052;-35
2022/10/16 05:36:25;;;;;;;5.82;4.90;;;;;;;3.94;74.16;94214.34;5060272;28;20189;-35
2022/10/16 05:38:51;;;;;;;2.58;2.47;;;;;;;4.22;73.24;94220.72;5067410;28;20033;-35
2022/10/16 05:41:21;;;;;;;2.47;2.38;;;;;;;4.37;72.63;94224.78;5060700;28;20095;-35
2022/10/16 05:43:46;;;;;;;5.82;3.05;;;;;;;4.44;72.48;94231.78;5064121;28;20021;-35
2022/10/16 05:46:12;;;;;;;5.05;4.10;;;;;;;4.51;72.51;94221.09;5067740;28;20031;-35
2022/10/16 05:48:37;;;;;;;2.72;2.53;;;;;;;4.53;72.14;94221.38;5061528;28;20024;-35
2022/10/16 05:51:06;;;;;;;0.68;0.68;;;;;;;4.46;72.51;94223.81;5066147;28;20053;-35
2022/10/16 05:53:33;;;;;;;1.55;1.17;;;;;;;4.55;72.42;94229.81;5060687;28;20036;-34
2022/10/16 05:55:59;;;;;;;1.30;1.20;;;;;;;4.66;72.17;94229.13;5054773;28;20028;-35
2022/10/16 05:58:25;;;;;;;0.43;0.43;;;;;;;4.67;72.62;94233.34;5059155;28;20421;-35
2022/10/16 06:01:03;;;;;;;1.17;1.17;;;;;;;4.99;72.25;94225.75;5043922;28;20415;-35
2022/10/16 06:03:29;;;;;;;5.13;4.47;;;;;;;5.19;71.84;94231.78;5057649;28;20077;-35
2022/10/16 06:05:55;;;;;;;7.57;6.72;;;;;;;5.53;70.29;94235.28;5057426;28;20017;-34
2022/10/16 06:08:21;;;;;;;10.55;6.45;;;;;;;5.76;69.86;94234.06;5070254;28;20040;-35
2022/10/16 06:10:47;;;;;;;6.75;5.57;;;;;;;5.97;68.96;94229.09;5064446;28;20035;-35
2022/10/16 06:13:13;;;;;;;11.00;6.22;;;;;;;6.25;68.34;94237.28;5072531;28;20095;-34
2022/10/16 06:15:41;;;;;;;0.98;0.98;;;;;;;6.40;68.04;94243.97;5071899;28;20029;-35
2022/10/16 06:18:10;;;;;;;1.05;1.05;;;;;;;6.71;67.06;94240.16;5068470;28;20024;-35
2022/10/16 06:20:37;;;;;;;2.78;2.60;;;;;;;7.16;66.39;94240.69;5069825;28;21242;-35
2022/10/16 06:23:03;;;;;;;2.67;2.55;;;;;;;7.62;65.36;94238.66;5066574;28;20103;-35
2022/10/16 06:25:30;;;;;;;6.07;2.70;;;;;;;8.19;63.58;94242.44;5069021;28;20027;-35
2022/10/16 06:27:56;;;;;;;1.85;1.75;;;;;;;9.19;61.59;94244.88;5051955;28;20027;-35
2022/10/16 06:30:21;;;;;;;5.85;4.25;;;;;;;10.21;58.30;94241.66;5066800;28;20020;-36
2022/10/16 06:32:47;;;;;;;0.73;0.70;;;;;;;11.17;55.69;94251.16;5069632;28;20032;-36
2022/10/16 06:35:12;;;;;;;1.10;0.90;;;;;;;12.07;53.40;94253.50;5064586;28;20020;-35
2022/10/16 06:37:38;;;;;;;0.75;0.75;;;;;;;13.04;51.14;94258.31;5069100;28;20017;-36
2022/10/16 06:40:04;;;;;;;2.20;0.82;;;;;;;13.99;48.57;94253.56;5068292;28;20078;-36
2022/10/16 06:42:30;;;;;;;1.25;0.90;;;;;;;14.62;46.65;94247.00;5070677;28;20450;-35
2022/10/16 06:44:55;;;;;;;1.58;1.45;;;;;;;15.56;44.89;94252.03;5062257;28;20103;-36
2022/10/16 06:47:21;;;;;;;1.83;1.73;;;;;;;16.09;43.70;94259.41;5064915;28;20043;-36
2022/10/16 06:49:46;;;;;;;2.10;1.88;;;;;;;16.94;42.35;94259.75;5071791;28;20101;-36
2022/10/16 06:52:12;;;;;;;4.30;3.90;;;;;;;17.56;41.10;94264.19;5059668;28;20044;-36
2022/10/16 06:54:38;;;;;;;4.10;3.72;;;;;;;18.11;40.33;94270.03;5062943;28;20028;-36
2022/10/16 06:57:03;;;;;;;1.92;1.77;;;;;;;18.40;39.57;94272.25;5061784;28;20017;-36
2022/10/16 06:59:29;;;;;;;4.78;3.60;;;;;;;18.93;38.87;94269.41;5063003;28;20524;-36
2022/10/16 07:01:55;;;;;;;5.07;2.78;;;;;;;19.09;38.66;94273.47;5065815;28;20021;-37
2022/10/16 07:04:21;;;;;;;1.73;1.63;;;;;;;19.30;38.80;94273.66;5069373;28;20039;-36
2022/10/16 07:06:47;;;;;;;2.05;1.75;;;;;;;19.60;38.51;94277.97;5067922;28;20024;-36
2022/10/16 07:09:13;;;;;;;2.67;2.35;;;;;;;19.95;38.14;94275.63;5069631;28;20024;-36
2022/10/16 07:11:40;;;;;;;8.35;1.80;;;;;;;20.09;37.65;94283.00;5060885;28;20365;-36
2022/10/16 07:14:15;;;;;;;0.98;0.98;;;;;;;20.11;38.13;94285.97;5057186;28;20111;-36
2022/10/16 07:16:41;;;;;;;0.60;0.60;;;;;;;20.32;38.26;94288.91;5065736;28;20028;-36
2022/10/16 07:19:08;;;;;;;1.27;1.17;;;;;;;20.15;37.83;94291.84;5065037;28;20052;-36
2022/10/16 07:21:37;;;;;;;0.63;0.63;;;;;;;19.24;38.85;94290.00;5064982;28;20028;-36
2022/10/16 07:24:06;;;;;;;0.77;0.63;;;;;;;18.30;40.97;94294.56;5061804;28;20058;-36
2022/10/16 07:26:35;;;;;;;1.35;1.15;;;;;;;17.94;43.14;94291.69;5061122;28;20025;-36
2022/10/16 07:29:00;;;;;;;;;;;;;;;18.00;43.00;94292.91;5066534;28;20037;-36
2022/10/16 07:31:27;;;;;;;3.17;2.00;;;;;;;17.63;44.23;94296.88;5065688;28;19916;-35
2022/10/16 07:33:53;;;;;;;3.13;2.85;;;;;;;17.03;45.59;94289.81;5065731;28;20096;-36
2022/10/16 07:36:20;;;;;;;2.22;2.13;;;;;;;16.86;47.45;94289.03;5065763;28;20112;-36
2022/10/16 07:38:46;;;;;;;16.70;10.90;;;;;;;17.03;48.53;94287.03;5065309;28;20416;-36
2022/10/16 07:41:17;;;;;;;3.75;3.42;;;;;;;17.77;46.66;94286.84;5066552;28;20066;-36
2022/10/16 07:43:50;;;;;;;3.20;2.90;;;;;;;18.35;45.45;94284.44;5062250;28;20024;-35
2022/10/16 07:46:17;;;;;;;4.35;2.25;;;;;;;18.87;43.74;94282.94;5062728;28;20029;-36
2022/10/16 07:48:46;;;;;;;2.75;1.13;;;;;;;18.59;44.09;94286.38;5064487;28;20028;-37
2022/10/16 07:51:14;;;;;;;1.05;1.05;;;;;;;18.85;43.08;94285.59;5066246;28;20049;-36
2022/10/16 07:53:39;;;;;;;0.60;0.60;;;;;;;18.39;44.04;94279.16;5065768;28;20025;-37
2022/10/16 07:56:06;;;;;;;0.85;0.85;;;;;;;18.82;42.94;94281.16;5062834;28;20533;-37
2022/10/16 07:58:33;;;;;;;1.10;1.00;;;;;;;18.55;42.35;94286.06;5061638;28;20104;-37
2022/10/16 08:00:59;;;;;;;0.80;0.80;;;;;;;19.03;42.30;94287.00;5066135;28;20103;-36
2022/10/16 08:03:26;;;;;;;4.53;1.13;;;;;;;18.64;42.99;94293.75;5044346;28;20040;-36
2022/10/16 08:05:52;;;;;;;0.90;0.90;;;;;;;18.80;41.70;94286.59;5062584;28;20526;-36
2022/10/16 08:08:18;;;;;;;0.50;0.50;;;;;;;18.90;42.18;94282.53;5065264;28;20024;-37
2022/10/16 08:10:44;;;;;;;1.95;1.85;;;;;;;19.10;42.75;94285.41;5046423;28;20028;-36
2022/10/16 08:13:09;;;;;;;1.05;1.05;;;;;;;19.10;43.55;94288.91;5064631;28;20046;-37
2022/10/16 08:15:35;;;;;;;1.02;1.02;;;;;;;19.06;41.64;94287.91;5067548;28;20035;-37
2022/10/16 08:18:03;;;;;;;1.48;1.38;;;;;;;18.89;44.14;94283.84;5045569;28;20025;-36
2022/10/16 08:20:30;;;;;;;0.90;0.65;;;;;;;19.05;42.35;94287.16;5063998;28;20111;-37
2022/10/16 08:22:55;;;;;;;0.30;0.30;;;;;;;19.27;41.91;94283.22;5066261;28;20020;-37
2022/10/16 08:25:24;;;;;;;1.20;0.73;;;;;;;19.48;43.36;94280.63;5066242;28;20047;-36
2022/10/16 08:27:50;;;;;;;0.40;0.40;;;;;;;19.78;42.38;94282.13;5066397;28;20029;-36
2022/10/16 08:30:17;;;;;;;2.35;1.15;;;;;;;20.37;40.64;94284.31;5058933;28;20059;-36
2022/10/16 08:32:42;;;;;;;1.08;1.08;;;;;;;20.79;40.10;94278.88;5060023;28;20036;-34
2022/10/16 08:35:09;;;;;;;0.55;0.55;;;;;;;20.84;39.93;94277.06;5065251;28;20090;-34
2022/10/16 08:37:35;;;;;;;0.65;0.65;;;;;;;20.95;39.61;94274.38;5063416;28;20032;-36
2022/10/16 08:40:01;;;;;;;0.98;0.77;;;;;;;21.22;38.64;94285.38;5063178;28;20036;-37
2022/10/16 08:42:26;;;;;;;0.82;0.82;;;;;;;20.91;39.46;94284.59;5067006;28;20404;-36
2022/10/16 08:45:13;;;;;;;1.15;1.05;;;;;;;20.89;37.40;94284.44;5066119;28;20571;-35
2022/10/16 08:47:59;;;;;;;0.52;0.52;;;;;;;20.69;39.74;94283.03;5056704;28;20066;-35
2022/10/16 08:50:27;;;;;;;0.77;0.73;;;;;;;20.51;39.05;94285.31;5063707;28;20044;-35
2022/10/16 08:52:53;;;;;;;1.65;1.55;;;;;;;20.45;39.14;94286.94;5046743;28;20032;-36
2022/10/16 08:55:43;;;;;;;0.63;0.50;;;;;;;20.44;38.30;94293.91;5038890;28;20110;-36
2022/10/16 08:58:14;;;;;;;1.77;1.50;;;;;;;20.01;39.43;94298.50;5043284;28;20564;-36
2022/10/16 09:00:40;;;;;;;4.93;1.63;;;;;;;19.82;38.53;94276.06;5060386;28;20710;-35
2022/10/16 09:03:33;;;;;;;0.45;0.45;;;;;;;19.56;40.51;94291.69;5064008;28;20021;-35
2022/10/16 09:06:21;;;;;;;0.40;0.40;;;;;;;19.63;40.16;94288.75;5059059;28;20689;-36
2022/10/16 09:08:53;;;;;;;0.95;0.95;;;;;;;19.96;41.33;94289.06;5060424;28;20035;-35
2022/10/16 09:11:39;;;;;;;1.85;0.80;;;;;;;20.06;39.92;94286.97;5062799;28;20036;-35
2022/10/16 09:14:23;;;;;;;0.75;0.68;;;;;;;20.06;40.33;94294.66;5060178;28;20507;-35
2022/10/16 09:16:57;;;;;;;0.57;0.57;;;;;;;20.66;39.51;94296.19;5059854;28;20020;-35
2022/10/16 09:19:32;;;;;;;0.80;0.80;;;;;;;20.68;38.55;94293.53;5042321;28;20102;-35
2022/10/16 09:21:59;;;;;;;0.52;0.52;;;;;;;20.81;38.47;94284.63;5063659;28;20024;-35
2022/10/16 09:24:26;;;;;;;0.32;0.32;;;;;;;21.04;38.73;94293.28;5061116;28;20033;-35
2022/10/16 09:26:51;;;;;;;0.80;0.80;;;;;;;21.27;36.81;94287.09;5059847;28;20523;-35
2022/10/16 09:29:19;;;;;;;0.73;0.73;;;;;;;21.49;37.39;94285.03;5058075;28;20032;-35
2022/10/16 09:31:45;;;;;;;4.18;2.50;;;;;;;21.73;36.86;94272.59;5061969;28;20028;-35
2022/10/16 09:34:32;;;;;;;1.15;1.05;;;;;;;21.99;36.34;94277.16;5060088;28;20040;-35
2022/10/16 09:36:59;;;;;;;1.55;1.17;;;;;;;22.06;36.94;94278.28;5043261;28;20025;-36
2022/10/16 09:39:25;;;;;;;1.55;1.45;;;;;;;22.30;35.29;94282.66;5061327;28;20028;-35
2022/10/16 09:41:51;;;;;;;2.58;1.63;;;;;;;22.36;34.91;94269.72;5043129;28;20040;-35
2022/10/16 09:44:29;;;;;;;0.40;0.40;;;;;;;22.71;34.73;94272.63;5061867;28;20037;-35
2022/10/16 09:47:17;;;;;;;0.47;0.47;;;;;;;23.21;33.55;94272.91;5061098;28;20031;-35
2022/10/16 09:49:57;;;;;;;0.63;0.63;;;;;;;23.54;32.24;94274.88;5066748;28;20035;-35
2022/10/16 09:52:23;;;;;;;0.20;0.20;;;;;;;23.50;32.04;94277.47;5068128;28;20033;-35
2022/10/16 09:55:00;;;;;;;0.32;0.32;;;;;;;23.24;31.78;94265.31;5063532;28;20402;-35
2022/10/16 09:57:26;;;;;;;0.73;0.73;;;;;;;22.90;32.19;94266.78;5061237;28;20036;-36
2022/10/16 09:59:52;;;;;;;1.35;0.90;;;;;;;23.42;31.75;94263.59;5065707;28;20166;-36
2022/10/16 10:02:23;;;;;;;0.20;0.20;;;;;;;24.02;28.58;94264.31;5066054;28;20107;-36
2022/10/16 10:04:56;;;;;;;0.77;0.50;;;;;;;23.38;30.30;94269.00;5064022;28;20405;-35
2022/10/16 10:07:43;;;;;;;0.52;0.52;;;;;;;23.65;30.41;94262.84;5064087;28;20047;-35
2022/10/16 10:10:29;;;;;;;0.20;0.20;;;;;;;23.43;29.23;94261.53;5045287;28;20040;-35
2022/10/16 10:12:56;;;;;;;1.02;0.98;;;;;;;24.06;29.85;94258.91;5065595;28;20115;-35
2022/10/16 10:15:23;;;;;;;0.38;0.38;;;;;;;24.50;29.60;94257.84;5068403;28;20032;-35
2022/10/16 10:17:56;;;;;;;0.65;0.65;;;;;;;24.67;28.42;94260.22;5066498;28;20393;-35
2022/10/16 10:20:34;;;;;;;0.55;0.55;;;;;;;25.61;28.30;94246.13;5065251;28;20426;-36
2022/10/16 10:23:00;;;;;;;2.30;1.20;;;;;;;25.94;26.38;94243.56;5055214;28;20473;-35
2022/10/16 10:25:34;;;;;;;0.20;0.20;;;;;;;25.98;25.98;94252.25;5065667;28;20051;-35
2022/10/16 10:28:25;;;;;;;0.30;0.15;;;;;;;26.41;27.68;94241.63;5047337;28;20417;-36
2022/10/16 10:31:01;;;;;;;2.40;0.85;;;;;;;26.59;26.58;94245.34;5067217;28;20056;-36
2022/10/16 10:33:54;;;;;;;0.55;0.55;;;;;;;26.47;25.43;94246.84;5042733;28;20043;-38
2022/10/16 10:36:31;;;;;;;1.10;1.10;;;;;;;26.56;25.37;94245.88;5058139;28;20049;-35
2022/10/16 10:39:03;;;;;;;1.15;1.15;;;;;;;26.47;25.92;94246.84;5047824;28;20090;-36
2022/10/16 10:41:42;;;;;;;0.20;0.20;;;;;;;26.53;24.56;94242.19;5067497;28;20149;-35
2022/10/16 10:44:16;;;;;;;2.45;2.20;;;;;;;26.30;25.73;94248.19;5065195;28;20064;-34
2022/10/16 10:47:01;;;;;;;0.45;0.45;;;;;;;26.74;25.05;94249.59;5066105;28;20032;-35
2022/10/16 10:50:07;;;;;;;0.40;0.30;;;;;;;27.20;24.16;94236.81;5039412;28;20025;-38
2022/10/16 10:53:00;;;;;;;3.20;0.88;;;;;;;27.30;23.64;94234.41;5031080;28;20068;-35
2022/10/16 10:55:45;;;;;;;0.35;0.35;;;;;;;27.88;23.10;94233.38;5056618;28;20033;-35
2022/10/16 10:58:10;;;;;;;0.77;0.40;;;;;;;28.01;23.14;94235.38;5049516;28;20037;-35
2022/10/16 11:00:45;;;;;;;0.52;0.50;;;;;;;27.96;23.26;94228.06;5062688;28;20037;-33
2022/10/16 11:03:26;;;;;;;0.60;0.60;;;;;;;27.09;23.57;94232.78;5066781;28;20114;-35
2022/10/16 11:05:55;;;;;;;1.13;1.13;;;;;;;27.29;23.85;94235.81;5061395;28;20029;-35
2022/10/16 11:08:28;;;;;;;0.43;0.43;;;;;;;27.49;23.82;94233.84;5064723;28;20496;-35
2022/10/16 11:11:08;;;;;;;0.20;0.20;;;;;;;27.55;23.27;94236.94;5049067;28;20044;-36
2022/10/16 11:13:39;;;;;;;1.25;1.15;;;;;;;27.20;24.15;94226.19;5048698;28;20032;-35
2022/10/16 11:16:20;;;;;;;0.90;0.90;;;;;;;26.48;25.12;94226.41;5046275;28;20036;-35
2022/10/16 11:18:51;;;;;;;0.32;0.32;;;;;;;26.32;24.62;94228.47;5058877;28;20070;-35
2022/10/16 11:21:18;;;;;;;25.48;2.95;;;;;;;25.58;25.34;94234.69;5060966;28;20528;-35
2022/10/16 11:24:05;;;;;;;0.50;0.50;;;;;;;24.83;26.66;94232.88;5043288;28;20032;-35
2022/10/16 11:26:35;;;;;;;5.40;1.77;;;;;;;24.73;27.31;94228.75;5041656;28;20039;-35
2022/10/16 11:29:02;;;;;;;0.82;0.82;;;;;;;24.64;26.66;94224.03;5044939;28;20052;-35
2022/10/16 11:32:25;;;;;;;0.30;0.30;;;;;;;24.47;27.79;94224.50;5055928;28;20037;-35
2022/10/16 11:35:05;;;;;;;0.30;0.30;;;;;;;24.95;26.52;94224.31;4972457;28;20047;-35
2022/10/16 11:37:34;;;;;;;0.85;0.85;;;;;;;24.41;27.07;94233.34;4968549;28;20031;-35
2022/10/16 11:40:14;;;;;;;0.30;0.30;;;;;;;24.30;27.68;94228.50;5046325;28;20123;-35
2022/10/16 11:42:44;;;;;;;0.35;0.35;;;;;;;23.77;27.55;94232.50;5049052;28;20021;-35
2022/10/16 11:45:31;;;;;;;0.50;0.50;;;;;;;23.37;28.38;94227.34;5067490;28;20024;-35
2022/10/16 11:48:23;;;;;;;0.40;0.40;;;;;;;23.11;28.68;94229.28;5069615;28;20024;-35
2022/10/16 11:51:00;;;;;;;4.97;0.60;;;;;;;23.19;28.77;94222.09;5054354;28;20057;-35